Time;durP1;ratioP1;P1;durP2;ratioP2;P2;SDS_P1;SDS_P2;PMS_P1;PMS_P2;Temp;Humidity;BMP_temperature;BMP_pressure;BME280_temperature;BME280_humidity;BME280_pressure;Samples;Min_cycle;Max_cycle;Signal;HPM_P1;HPM_P2
2022/08/12 00:43:59;;;;;;;32.30;16.60;;;;;;;24.42;59.08;99104.70;25070;1316;3053032;-58
2022/08/12 00:46:35;;;;;;;30.70;16.50;;;;;;;24.46;58.63;99109.45;25027;1316;3026256;-59
2022/08/12 00:49:05;;;;;;;32.00;17.20;;;;;;;24.51;58.50;99108.28;25038;1317;3055625;-60
2022/08/12 00:54:21;;;;;;;26.10;17.20;;;;;;;24.55;59.35;99115.77;25009;1319;3055658;-58
2022/08/12 00:56:50;;;;;;;29.40;16.60;;;;;;;24.54;59.70;99117.73;25099;1317;3026383;-58
2022/08/12 00:59:19;;;;;;;31.40;17.60;;;;;;;24.52;59.71;99109.70;24955;1318;3052295;-61
2022/08/12 01:01:48;;;;;;;41.70;18.30;;;;;;;24.48;60.15;99113.31;25101;1315;3026539;-61
2022/08/12 01:12:42;;;;;;;35.40;17.80;;;;;;;24.29;62.05;99113.09;25100;1316;3054082;-57
2022/08/12 01:15:12;;;;;;;34.70;18.40;;;;;;;24.27;61.91;99110.47;25005;1316;3026274;-58
2022/08/12 01:17:43;;;;;;;35.30;18.30;;;;;;;24.28;61.67;99123.06;25061;1319;3053073;-57
2022/08/12 01:20:19;;;;;;;31.30;18.20;;;;;;;24.24;61.80;99118.16;25127;1314;3026652;-61
2022/08/12 01:23:30;;;;;;;26.60;17.10;;;;;;;24.25;61.24;99116.31;25057;1319;3067876;-58
2022/08/12 01:25:59;;;;;;;31.40;16.70;;;;;;;24.25;60.26;99114.02;25078;1316;3051721;-59
2022/08/12 01:28:30;;;;;;;30.20;17.40;;;;;;;24.26;59.77;99116.64;25095;1316;3026447;-59
2022/08/12 01:31:03;;;;;;;28.50;17.00;;;;;;;24.29;58.79;99118.79;25084;1316;3026703;-60
2022/08/12 01:33:42;;;;;;;27.10;16.70;;;;;;;24.34;58.85;99121.30;25089;1316;3056569;-58
2022/08/12 01:36:11;;;;;;;39.40;17.30;;;;;;;24.38;58.76;99125.31;25039;1316;3053541;-60
2022/08/12 01:38:40;;;;;;;40.90;16.20;;;;;;;24.39;58.40;99128.10;25114;1316;3026882;-59
2022/08/12 01:41:10;;;;;;;27.20;15.40;;;;;;;24.38;57.97;99133.16;25036;1316;3058608;-58
2022/08/12 01:43:39;;;;;;;28.80;11.30;;;;;;;24.38;57.74;99128.30;25026;1316;3026788;-56
2022/08/12 01:46:21;;;;;;;19.80;10.30;;;;;;;24.39;57.63;99129.24;25095;1315;3026515;-56
2022/08/12 01:49:11;;;;;;;15.10;8.70;;;;;;;24.41;57.43;99122.71;25100;1316;3059225;-57
2022/08/12 01:51:42;;;;;;;13.00;8.90;;;;;;;24.43;57.06;99123.17;25120;1316;3049423;-55
2022/08/12 01:54:12;;;;;;;14.90;8.60;;;;;;;24.43;57.06;99126.73;25071;1316;3026887;-57
2022/08/12 01:57:01;;;;;;;12.70;8.20;;;;;;;24.44;56.99;99125.14;25126;1316;3026841;-54
2022/08/12 01:59:55;;;;;;;12.60;8.20;;;;;;;24.44;56.72;99124.80;25089;1316;3071012;-57
2022/08/12 02:02:31;;;;;;;13.80;9.10;;;;;;;24.43;56.51;99118.17;25103;1316;3052106;-59
2022/08/12 02:11:55;;;;;;;13.30;8.40;;;;;;;24.39;56.17;99100.59;25071;1316;3059277;-56
2022/08/12 02:14:39;;;;;;;11.00;8.50;;;;;;;24.39;56.16;99101.12;25080;1316;3051519;-57
2022/08/12 02:17:14;;;;;;;;;;;;;;;24.41;56.06;99101.80;25104;1316;3053014;-56
2022/08/12 02:20:20;;;;;;;14.10;8.20;;;;;;;24.39;56.06;99105.45;25055;1316;3051866;-58
2022/08/12 02:22:49;;;;;;;12.70;7.60;;;;;;;24.40;55.90;99101.20;25029;1316;3071111;-61
2022/08/12 02:25:28;;;;;;;11.70;7.70;;;;;;;24.40;55.72;99100.60;25054;1319;3026638;-58
2022/08/12 02:27:57;;;;;;;10.50;7.80;;;;;;;24.40;55.75;99099.61;25057;1316;3053777;-57
2022/08/12 02:30:30;;;;;;;15.70;8.20;;;;;;;24.41;55.64;99098.00;25089;1316;3026555;-60
2022/08/12 02:33:00;;;;;;;10.70;7.80;;;;;;;24.43;55.56;99098.52;25048;1316;3055368;-58
2022/08/12 02:35:34;;;;;;;11.90;7.90;;;;;;;24.39;55.50;99096.08;25061;1315;3028412;-57
2022/08/12 02:38:08;;;;;;;11.80;9.00;;;;;;;24.38;55.41;99095.91;25031;1316;3067615;-59
2022/08/12 02:40:39;;;;;;;13.00;9.40;;;;;;;24.40;55.41;99094.20;25042;1316;3051256;-59
2022/08/12 02:43:22;;;;;;;12.40;8.20;;;;;;;24.39;55.39;99097.33;25131;1316;3026767;-55
2022/08/12 02:45:54;;;;;;;10.80;8.30;;;;;;;24.36;55.42;99093.95;25073;1316;3055466;-56
2022/08/12 02:48:46;;;;;;;14.50;9.30;;;;;;;24.38;55.33;99096.38;25058;1316;3026572;-58
2022/08/12 02:51:19;;;;;;;12.10;8.90;;;;;;;24.38;55.21;99097.64;25070;1316;3050319;-55
2022/08/12 02:53:49;;;;;;;17.10;8.90;;;;;;;24.37;55.08;99102.05;25091;1315;3026494;-55
2022/08/12 02:56:18;;;;;;;12.70;9.20;;;;;;;24.37;55.16;99101.36;25117;1316;3027548;-60
2022/08/12 02:58:47;;;;;;;12.20;8.20;;;;;;;24.37;55.22;99107.58;25045;1316;3026774;-59
2022/08/12 03:01:16;;;;;;;14.00;8.90;;;;;;;24.39;55.00;99103.80;25119;1316;3055130;-59
2022/08/12 03:03:45;;;;;;;12.60;8.30;;;;;;;24.39;55.03;99110.13;25015;1316;3026661;-60
2022/08/12 03:06:16;;;;;;;11.30;8.60;;;;;;;24.38;55.08;99114.69;25075;1315;3026755;-57
2022/08/12 03:08:45;;;;;;;13.30;8.50;;;;;;;24.38;55.09;99119.16;25061;1316;3052497;-58
2022/08/12 03:11:19;;;;;;;11.20;8.00;;;;;;;24.41;55.22;99122.71;25037;1318;3026435;-59
2022/08/12 03:13:56;;;;;;;15.70;9.10;;;;;;;24.43;55.29;99128.05;25080;1315;3052805;-62
2022/08/12 03:16:28;;;;;;;14.60;9.10;;;;;;;24.43;55.32;99133.01;25045;1316;3055149;-60
2022/08/12 03:18:58;;;;;;;14.30;8.80;;;;;;;24.40;55.33;99138.18;25062;1316;3030050;-60
2022/08/12 03:21:26;;;;;;;12.80;9.00;;;;;;;24.43;55.35;99141.06;25079;1316;3026558;-58
2022/08/12 03:23:56;;;;;;;17.10;9.80;;;;;;;24.41;55.63;99144.17;25054;1316;3055069;-58
2022/08/12 03:26:25;;;;;;;15.70;9.10;;;;;;;24.38;55.64;99147.33;24335;1315;4547220;-60
2022/08/12 03:28:56;;;;;;;15.20;9.20;;;;;;;24.40;55.49;99152.52;25055;1315;3026735;-59
2022/08/12 03:31:28;;;;;;;12.90;9.40;;;;;;;24.43;55.37;99153.66;24996;1315;3050448;-57
2022/08/12 03:34:03;;;;;;;10.90;8.90;;;;;;;24.43;55.50;99155.09;25054;1315;3026735;-60
2022/08/12 03:36:33;;;;;;;11.70;8.50;;;;;;;24.45;55.48;99151.41;25065;1315;3050287;-59
2022/08/12 03:41:53;;;;;;;11.40;8.60;;;;;;;24.45;55.33;99150.45;25072;1315;3055339;-58
2022/08/12 04:01:39;;;;;;;12.60;7.90;;;;;;;24.52;55.20;99164.98;25015;1315;3054220;-59
2022/08/12 04:04:09;;;;;;;14.30;8.40;;;;;;;24.55;55.26;99160.88;25121;1319;3026870;-56
2022/08/12 04:06:41;;;;;;;12.60;8.10;;;;;;;24.56;55.27;99162.05;25063;1316;3026156;-57
2022/08/12 04:09:12;;;;;;;14.30;8.60;;;;;;;24.56;55.31;99160.36;25111;1319;3028666;-60
2022/08/12 04:14:28;;;;;;;10.70;7.10;;;;;;;24.62;55.25;99162.04;25114;1319;3054886;-57
2022/08/12 04:16:57;;;;;;;13.30;8.00;;;;;;;24.65;55.14;99171.75;25051;1316;3026275;-59
2022/08/12 04:19:26;;;;;;;13.40;8.50;;;;;;;24.67;55.51;99165.06;25112;1316;3054464;-60
2022/08/12 04:21:56;;;;;;;12.40;8.30;;;;;;;24.67;55.41;99165.16;25041;1315;3026081;-57
2022/08/12 04:24:26;;;;;;;11.70;7.70;;;;;;;24.72;55.29;99163.17;25056;1316;3048153;-56
2022/08/12 04:26:55;;;;;;;14.40;8.30;;;;;;;24.76;55.24;99171.40;25062;1316;3027014;-58
2022/08/12 04:29:25;;;;;;;11.00;7.80;;;;;;;24.78;55.22;99173.48;25113;1315;3026737;-59
2022/08/12 04:31:55;;;;;;;11.50;7.80;;;;;;;24.86;55.05;99167.69;25100;1316;3051334;-61
2022/08/12 04:34:25;;;;;;;11.90;8.20;;;;;;;24.91;54.86;99173.30;25100;1314;3026672;-59
2022/08/12 04:36:54;;;;;;;14.40;8.10;;;;;;;24.93;54.87;99175.16;25091;1316;3028079;-60
2022/08/12 04:39:23;;;;;;;19.60;9.10;;;;;;;24.94;54.89;99184.34;25069;1316;3048592;-62
2022/08/12 04:41:52;;;;;;;15.80;8.00;;;;;;;24.99;55.08;99189.37;25112;1316;3026729;-57
2022/08/12 04:44:21;;;;;;;14.50;8.30;;;;;;;25.01;55.14;99185.83;25076;1316;3026961;-58
2022/08/12 04:46:51;;;;;;;11.50;7.80;;;;;;;25.05;54.91;99194.42;25098;1316;3047455;-60
2022/08/12 04:49:20;;;;;;;13.80;8.50;;;;;;;25.06;55.15;99200.46;25101;1315;3026492;-58
2022/08/12 04:51:50;;;;;;;12.30;7.40;;;;;;;25.05;55.22;99204.48;25038;1316;3026479;-58
2022/08/12 04:54:19;;;;;;;13.90;8.00;;;;;;;25.05;55.20;99210.83;25055;1316;3026161;-58
2022/08/12 04:56:50;;;;;;;16.60;8.50;;;;;;;25.01;55.65;99216.51;25079;1314;3054144;-61
2022/08/12 04:59:19;;;;;;;13.80;7.70;;;;;;;24.98;55.99;99228.14;25077;1316;3026909;-57
2022/08/12 05:01:50;;;;;;;15.00;8.20;;;;;;;24.89;56.66;99231.04;25093;1316;3027024;-59
2022/08/12 05:04:20;;;;;;;18.20;8.10;;;;;;;24.76;56.65;99237.98;25040;1316;3053978;-59
2022/08/12 05:06:49;;;;;;;16.20;8.10;;;;;;;24.69;56.99;99234.05;25048;1315;3026562;-56
2022/08/12 05:09:18;;;;;;;18.30;7.50;;;;;;;24.64;56.07;99239.16;25120;1316;3026475;-58
2022/08/12 05:11:50;;;;;;;15.90;7.80;;;;;;;24.53;55.27;99235.95;25032;1316;3054265;-60
2022/08/12 05:14:19;;;;;;;18.90;7.60;;;;;;;24.60;55.08;99237.27;25044;1315;3026355;-62
2022/08/12 05:16:48;;;;;;;14.80;6.90;;;;;;;24.57;55.09;99235.17;25089;1316;3026450;-58
2022/08/12 05:19:20;;;;;;;18.30;6.90;;;;;;;24.55;54.02;99229.09;25045;1315;3053431;-60
2022/08/12 05:21:48;;;;;;;15.80;7.20;;;;;;;24.54;53.30;99227.30;25110;1314;3026462;-62
2022/08/12 05:24:18;;;;;;;13.70;6.40;;;;;;;24.57;52.41;99230.48;25056;1314;3028166;-62
2022/08/12 05:26:46;;;;;;;15.10;6.70;;;;;;;24.61;51.73;99230.57;25135;1316;3052182;-60
2022/08/12 05:29:15;;;;;;;13.90;6.10;;;;;;;24.65;50.88;99227.94;25052;1316;3026938;-62
2022/08/12 05:31:44;;;;;;;11.10;6.10;;;;;;;24.70;49.77;99226.55;25106;1316;3048639;-62
2022/08/12 05:34:14;;;;;;;12.10;5.80;;;;;;;24.79;48.72;99228.21;25068;1315;3026389;-59
2022/08/12 05:36:43;;;;;;;15.30;5.90;;;;;;;24.90;48.33;99230.09;25056;1316;3069133;-60
2022/08/12 05:39:12;;;;;;;11.50;5.70;;;;;;;24.96;48.06;99236.97;25130;1316;3026762;-59
2022/08/12 05:41:43;;;;;;;10.40;5.60;;;;;;;25.05;48.03;99236.59;25045;1316;3026356;-56
2022/08/12 05:44:14;;;;;;;22.10;6.70;;;;;;;25.05;48.05;99241.02;25070;1316;3068965;-59
2022/08/12 05:46:43;;;;;;;12.50;5.50;;;;;;;25.04;47.90;99243.58;25036;1316;3026111;-59
2022/08/12 05:49:12;;;;;;;15.80;5.30;;;;;;;25.06;47.97;99245.41;25139;1316;3026651;-57
2022/08/12 05:51:41;;;;;;;10.70;4.80;;;;;;;25.08;48.07;99248.20;25044;1316;3069990;-57
2022/08/12 05:54:10;;;;;;;17.80;5.80;;;;;;;25.11;48.25;99247.65;25101;1316;3026383;-59
2022/08/12 05:56:40;;;;;;;10.00;5.00;;;;;;;25.12;48.26;99244.31;25120;1315;3026588;-55
2022/08/12 05:59:09;;;;;;;9.20;4.80;;;;;;;25.18;48.27;99250.93;25044;1316;3068168;-57
2022/08/12 06:01:39;;;;;;;9.20;4.70;;;;;;;25.20;48.20;99254.99;25105;1314;3026445;-63
2022/08/12 06:04:08;;;;;;;12.20;5.20;;;;;;;25.21;48.17;99257.86;25119;1316;3026548;-60
2022/08/12 06:06:40;;;;;;;10.40;5.10;;;;;;;25.21;48.48;99265.23;25010;1316;3026391;-58
2022/08/12 06:09:10;;;;;;;9.40;5.20;;;;;;;25.19;49.21;99271.00;25103;1315;3048342;-57
2022/08/12 06:11:44;;;;;;;11.60;5.20;;;;;;;25.12;50.14;99269.16;25092;1315;3027260;-56
2022/08/12 06:14:13;;;;;;;8.10;4.10;;;;;;;25.04;50.69;99262.84;25050;1316;3055622;-58
2022/08/12 06:16:45;;;;;;;10.70;5.30;;;;;;;24.97;50.55;99262.98;25097;1316;3026567;-58
2022/08/12 06:19:14;;;;;;;10.70;4.90;;;;;;;24.85;51.31;99261.05;25080;1316;3026472;-59
2022/08/12 06:21:47;;;;;;;8.50;4.40;;;;;;;24.82;51.13;99256.27;25059;1316;3026615;-58
2022/08/12 06:24:22;;;;;;;6.40;4.00;;;;;;;24.76;50.91;99251.64;25094;1315;3026488;-58
2022/08/12 06:26:51;;;;;;;10.60;3.90;;;;;;;24.73;51.52;99257.20;25020;1315;3069115;-59
2022/08/12 06:29:21;;;;;;;6.20;3.90;;;;;;;24.68;52.32;99257.77;25142;1316;3026734;-59
2022/08/12 06:31:51;;;;;;;6.30;3.90;;;;;;;24.62;53.47;99253.09;25120;1315;3051064;-58
2022/08/12 06:34:20;;;;;;;5.20;3.60;;;;;;;24.60;54.10;99256.01;25042;1315;3026903;-59
2022/08/12 06:36:48;;;;;;;7.70;4.40;;;;;;;24.56;56.92;99252.48;25138;1316;3026255;-61
2022/08/12 06:39:18;;;;;;;9.50;4.00;;;;;;;24.46;58.07;99245.27;25072;1315;3053744;-60
2022/08/12 06:44:34;;;;;;;12.10;5.60;;;;;;;24.32;57.45;99232.80;25075;1314;3055463;-59
2022/08/12 06:47:04;;;;;;;8.50;5.30;;;;;;;24.27;57.73;99225.71;25049;1316;3026518;-60
2022/08/12 06:49:35;;;;;;;10.20;5.00;;;;;;;24.26;56.07;99223.85;25081;1316;3051968;-57
2022/08/12 06:52:06;;;;;;;8.50;4.20;;;;;;;24.29;54.87;99218.48;25108;1315;3026205;-59
2022/08/12 06:54:35;;;;;;;7.80;4.40;;;;;;;24.33;53.88;99221.07;25101;1316;3026959;-62
2022/08/12 06:57:04;;;;;;;6.00;3.80;;;;;;;24.39;53.74;99224.86;25066;1316;3027074;-59
2022/08/12 06:59:34;;;;;;;7.70;4.70;;;;;;;24.42;54.45;99220.19;25101;1316;3052598;-59
2022/08/12 07:02:03;;;;;;;7.90;4.30;;;;;;;24.42;54.99;99216.17;25036;1315;3026641;-60
2022/08/12 07:04:34;;;;;;;8.80;5.20;;;;;;;24.42;54.93;99209.81;25105;1315;3026820;-59
2022/08/12 07:07:05;;;;;;;13.30;4.70;;;;;;;24.40;54.79;99206.41;25061;1316;3054888;-59
2022/08/12 07:09:34;;;;;;;12.90;5.40;;;;;;;24.40;54.99;99198.77;25105;1314;3026767;-62
2022/08/12 07:12:04;;;;;;;16.20;6.50;;;;;;;24.41;55.14;99196.63;25080;1316;3027631;-60
2022/08/12 07:14:33;;;;;;;15.50;7.20;;;;;;;24.33;55.67;99189.60;25070;1316;3026282;-61
2022/08/12 07:17:02;;;;;;;12.70;6.90;;;;;;;24.32;55.73;99184.14;25081;1315;3051311;-59
2022/08/12 07:19:33;;;;;;;14.50;7.30;;;;;;;24.29;56.25;99179.80;25048;1315;3026927;-61
2022/08/12 07:22:05;;;;;;;17.50;8.70;;;;;;;24.23;56.19;99170.34;25031;1316;3055564;-61
2022/08/12 07:24:35;;;;;;;30.40;11.80;;;;;;;24.13;56.74;99164.98;25046;1315;3050966;-56
2022/08/12 07:27:04;;;;;;;22.80;12.70;;;;;;;24.12;57.54;99159.34;25090;1315;3026214;-59
2022/08/12 07:29:33;;;;;;;21.60;11.60;;;;;;;24.16;57.81;99158.56;25045;1316;3052295;-60
2022/08/12 07:32:04;;;;;;;24.50;11.30;;;;;;;24.20;57.96;99158.79;25130;1315;3026360;-60
2022/08/12 07:34:33;;;;;;;21.80;10.00;;;;;;;24.13;58.13;99155.07;25035;1316;3049340;-60
2022/08/12 07:37:02;;;;;;;20.50;10.60;;;;;;;24.19;58.41;99162.27;25126;1317;3026576;-59
2022/08/12 07:39:31;;;;;;;17.10;9.10;;;;;;;24.23;58.50;99165.08;25037;1316;3058192;-61
2022/08/12 07:42:00;;;;;;;21.70;9.90;;;;;;;24.24;58.74;99164.43;25103;1316;3026638;-61
2022/08/12 07:44:31;;;;;;;18.00;9.20;;;;;;;24.16;59.08;99160.14;25062;1316;3055075;-59
2022/08/12 07:47:02;;;;;;;15.60;8.10;;;;;;;24.12;59.27;99168.14;25098;1316;3026605;-58
2022/08/12 07:49:31;;;;;;;16.90;9.00;;;;;;;24.20;59.40;99172.89;25096;1316;3027357;-61
2022/08/12 07:52:00;;;;;;;14.60;8.00;;;;;;;24.26;58.94;99179.90;25113;1315;3026824;-58
2022/08/12 07:54:30;;;;;;;15.50;8.00;;;;;;;24.35;58.90;99187.40;25068;1316;3059272;-61
2022/08/12 07:56:59;;;;;;;14.90;8.10;;;;;;;24.38;59.41;99192.05;25093;1316;3027585;-60
2022/08/12 07:59:28;;;;;;;20.50;10.10;;;;;;;24.41;59.78;99196.23;25033;1316;3053514;-59
2022/08/12 08:02:00;;;;;;;19.20;10.20;;;;;;;24.45;59.10;99197.58;25085;1316;3026981;-59
2022/08/12 08:07:17;;;;;;;17.90;10.00;;;;;;;24.69;57.44;99206.90;25055;1316;3052842;-59
2022/08/12 08:09:46;;;;;;;17.90;10.00;;;;;;;24.80;57.34;99213.66;25148;1316;3026233;-57
2022/08/12 08:15:04;;;;;;;16.80;9.90;;;;;;;25.02;57.53;99217.02;25097;1316;3054744;-63
2022/08/12 08:17:36;;;;;;;15.00;10.00;;;;;;;25.17;57.60;99213.34;25138;1316;3026300;-62
2022/08/12 08:20:07;;;;;;;15.60;9.70;;;;;;;25.30;57.61;99214.23;25086;1316;3026725;-59
2022/08/12 08:22:39;;;;;;;14.40;9.80;;;;;;;25.46;57.56;99218.51;25092;1316;3027410;-61
2022/08/12 08:25:10;;;;;;;17.00;10.20;;;;;;;25.64;57.47;99211.48;25127;1316;3026634;-57
2022/08/12 08:27:44;;;;;;;18.40;9.90;;;;;;;25.87;57.24;99214.04;25106;1316;3026527;-58
2022/08/12 08:30:13;;;;;;;21.00;10.90;;;;;;;26.13;56.34;99213.33;25079;1316;3051903;-59
2022/08/12 08:32:42;;;;;;;15.40;9.40;;;;;;;26.35;56.15;99209.93;25108;1316;3026570;-57
2022/08/12 08:35:11;;;;;;;19.00;9.30;;;;;;;26.57;55.29;99215.50;25068;1316;3068587;-60
2022/08/12 08:37:45;;;;;;;25.10;11.30;;;;;;;26.80;54.20;99214.17;25108;1316;3026325;-60
2022/08/12 08:43:02;;;;;;;14.50;9.30;;;;;;;27.15;53.33;99222.11;25038;1316;3055132;-62
2022/08/12 08:45:31;;;;;;;15.50;9.70;;;;;;;27.34;52.53;99217.40;25103;1316;3026702;-63
2022/08/12 08:48:00;;;;;;;14.30;9.70;;;;;;;27.34;51.98;99218.23;25047;1316;3026739;-61
2022/08/12 08:50:29;;;;;;;19.90;10.40;;;;;;;27.44;52.13;99223.09;25076;1314;3055246;-61
2022/08/12 08:52:59;;;;;;;12.50;8.50;;;;;;;27.58;51.92;99226.68;25137;1316;3027177;-58
2022/08/12 08:55:27;;;;;;;16.60;10.80;;;;;;;27.71;51.61;99222.42;25070;1316;3026147;-61
2022/08/12 08:57:57;;;;;;;13.00;9.90;;;;;;;27.74;51.64;99231.75;25092;1316;3027283;-60
2022/08/12 09:00:26;;;;;;;14.70;10.50;;;;;;;27.76;51.33;99234.29;25023;1319;3058081;-61
2022/08/12 09:02:55;;;;;;;18.60;10.00;;;;;;;27.75;51.08;99228.68;25061;1315;3026317;-58
2022/08/12 09:05:24;;;;;;;16.50;10.50;;;;;;;27.70;50.63;99233.14;25058;1316;3054126;-59
2022/08/12 09:07:55;;;;;;;15.30;9.80;;;;;;;27.68;50.86;99237.79;25057;1316;3026356;-62
2022/08/12 09:10:24;;;;;;;15.90;10.70;;;;;;;27.73;50.72;99238.94;25073;1315;3054587;-60
2022/08/12 09:13:38;;;;;;;15.40;10.40;;;;;;;27.89;50.43;99237.99;25095;1316;3026521;-60
2022/08/12 09:15:42;;;;;;;14.30;9.50;;;;;;;28.07;49.73;99233.94;25055;1316;3051793;-60
2022/08/12 09:18:12;;;;;;;13.20;9.70;;;;;;;28.17;49.29;99233.73;25051;1316;3026799;-56
2022/08/12 09:20:42;;;;;;;14.50;10.50;;;;;;;28.24;49.01;99230.89;25039;1316;3027862;-60
2022/08/12 09:23:12;;;;;;;13.70;9.50;;;;;;;28.22;49.36;99231.64;25053;1316;3026483;-61
2022/08/12 09:25:42;;;;;;;16.40;10.80;;;;;;;28.21;49.40;99231.94;25091;1316;3026498;-59
2022/08/12 09:28:11;;;;;;;19.10;11.10;;;;;;;28.22;48.86;99225.64;25056;1316;3026826;-60
2022/08/12 09:30:45;;;;;;;15.70;9.90;;;;;;;28.20;48.76;99225.58;25095;1316;3026488;-60
2022/08/12 09:33:13;;;;;;;;;;;;;;;28.31;48.73;99221.96;25042;1316;3049338;-59
2022/08/12 09:35:46;;;;;;;15.40;10.90;;;;;;;28.31;48.58;99227.36;25083;1316;3026685;-58
2022/08/12 09:38:16;;;;;;;19.10;11.30;;;;;;;28.38;48.49;99230.73;25087;1316;3059203;-62
2022/08/12 09:40:46;;;;;;;17.60;11.10;;;;;;;28.50;48.47;99230.84;25037;1315;3028578;-59
2022/08/12 09:46:03;;;;;;;14.00;10.60;;;;;;;28.68;48.08;99237.05;25049;1316;3053637;-62
2022/08/12 09:48:33;;;;;;;16.40;10.20;;;;;;;28.68;48.25;99240.45;25078;1316;3026806;-61
2022/08/12 09:51:03;;;;;;;16.70;10.50;;;;;;;28.74;48.22;99236.05;25052;1316;3026653;-59
2022/08/12 09:53:33;;;;;;;13.60;9.00;;;;;;;28.73;47.91;99232.21;25053;1316;3052928;-62
2022/08/12 09:56:02;;;;;;;13.50;10.00;;;;;;;28.82;47.60;99233.80;25092;1316;3026923;-63
2022/08/12 09:58:33;;;;;;;15.70;9.60;;;;;;;28.81;47.29;99230.39;25031;1316;3027125;-62
2022/08/12 10:01:03;;;;;;;14.10;9.30;;;;;;;28.81;47.31;99236.05;25092;1316;3026585;-60
2022/08/12 10:03:35;;;;;;;13.90;9.70;;;;;;;28.76;47.41;99239.66;25043;1316;3026695;-60
2022/08/12 10:06:05;;;;;;;17.20;9.70;;;;;;;28.74;47.64;99239.88;25150;1316;3026999;-59
2022/08/12 10:08:35;;;;;;;16.40;11.60;;;;;;;28.75;47.56;99235.46;25097;1315;3026031;-61
2022/08/12 10:13:54;;;;;;;17.80;10.50;;;;;;;28.54;48.15;99248.65;25082;1316;3054253;-58
2022/08/12 10:16:27;;;;;;;22.40;10.30;;;;;;;28.50;48.48;99241.89;25080;1316;3026638;-57
2022/08/12 10:19:01;;;;;;;19.40;11.10;;;;;;;28.47;48.52;99246.56;25084;1316;3026075;-57
2022/08/12 10:21:35;;;;;;;22.80;11.90;;;;;;;28.40;48.73;99243.36;25105;1316;3052187;-60
2022/08/12 10:24:07;;;;;;;13.20;9.50;;;;;;;28.38;48.76;99239.42;25120;1315;3053077;-60
2022/08/12 10:29:44;;;;;;;16.60;11.80;;;;;;;28.40;48.90;99239.46;25088;1316;3049746;-59
2022/08/12 10:32:22;;;;;;;17.00;10.70;;;;;;;28.30;49.23;99234.84;25065;1316;3055216;-59
2022/08/12 10:34:52;;;;;;;15.70;10.40;;;;;;;28.33;49.32;99231.80;25108;1315;3051807;-59
2022/08/12 10:37:21;;;;;;;14.80;9.50;;;;;;;28.26;49.55;99227.02;25071;1315;3026599;-63
2022/08/12 10:39:51;;;;;;;15.00;9.20;;;;;;;28.23;49.31;99230.59;25089;1316;3055194;-60
2022/08/12 10:45:08;;;;;;;14.40;9.50;;;;;;;28.08;49.41;99229.20;25044;1316;3052446;-60
2022/08/12 10:47:37;;;;;;;16.60;10.50;;;;;;;28.16;49.14;99233.83;25066;1316;3026635;-59
2022/08/12 10:50:08;;;;;;;14.90;10.40;;;;;;;27.96;49.93;99238.39;25105;1316;3026688;-58
2022/08/12 10:52:40;;;;;;;15.30;9.00;;;;;;;27.85;49.34;99239.79;25096;1315;3051074;-61
2022/08/12 10:55:09;;;;;;;16.50;9.70;;;;;;;27.80;48.08;99240.13;25095;1314;3026209;-57
2022/08/12 10:57:37;;;;;;;17.10;8.70;;;;;;;27.66;47.96;99236.38;25055;1316;3026685;-57
2022/08/12 11:00:07;;;;;;;18.40;8.70;;;;;;;27.57;46.84;99234.61;25096;1316;3048759;-59
2022/08/12 11:02:36;;;;;;;16.60;8.40;;;;;;;27.44;45.94;99235.65;25092;1316;3026852;-57
2022/08/12 11:05:06;;;;;;;12.10;7.20;;;;;;;27.45;45.49;99239.27;25079;1316;3027268;-59
2022/08/12 11:07:37;;;;;;;15.10;8.00;;;;;;;27.41;45.27;99236.62;25036;1315;3049350;-59
2022/08/12 11:10:06;;;;;;;13.80;7.60;;;;;;;27.35;44.74;99238.44;25093;1314;3026285;-56
2022/08/12 11:12:41;;;;;;;16.10;8.20;;;;;;;27.39;44.66;99241.14;25046;1316;3026833;-58
2022/08/12 11:15:10;;;;;;;17.80;8.30;;;;;;;27.39;44.91;99242.08;25093;1316;3071257;-56
2022/08/12 11:17:40;;;;;;;17.60;7.70;;;;;;;27.33;45.00;99246.47;25055;1316;3026923;-60
2022/08/12 11:20:09;;;;;;;16.60;7.70;;;;;;;27.35;45.03;99253.70;25120;1316;3051382;-60
2022/08/12 11:22:38;;;;;;;15.90;7.80;;;;;;;27.40;45.54;99255.46;25054;1316;3026538;-58
2022/08/12 11:25:08;;;;;;;10.30;6.50;;;;;;;27.49;45.63;99252.41;25100;1316;3054210;-59
2022/08/12 11:27:37;;;;;;;13.60;8.10;;;;;;;27.55;45.64;99255.87;25048;1316;3029817;-57
2022/08/12 11:30:07;;;;;;;14.00;7.60;;;;;;;27.48;45.58;99261.05;25152;1315;3026648;-56
2022/08/12 11:32:36;;;;;;;13.30;7.50;;;;;;;27.49;45.89;99260.80;25108;1316;3052406;-58
2022/08/12 11:35:06;;;;;;;12.30;7.10;;;;;;;27.37;46.24;99263.17;25058;1316;3026860;-57
2022/08/12 11:37:37;;;;;;;14.10;8.00;;;;;;;27.29;46.39;99263.89;25048;1316;3050118;-59
2022/08/12 11:40:06;;;;;;;14.60;7.80;;;;;;;27.20;46.85;99263.60;25116;1316;3027029;-59
2022/08/12 11:42:35;;;;;;;13.40;7.40;;;;;;;27.10;47.00;99266.95;25056;1316;3026289;-61
2022/08/12 11:45:05;;;;;;;14.20;7.40;;;;;;;27.03;46.67;99263.75;25118;1315;3026977;-59
2022/08/12 11:47:34;;;;;;;9.70;6.40;;;;;;;26.94;46.85;99267.67;25134;1316;3051910;-60
2022/08/12 11:50:04;;;;;;;13.10;7.10;;;;;;;27.04;46.69;99271.55;25065;1316;3027412;-60
2022/08/12 11:52:33;;;;;;;11.30;6.50;;;;;;;27.03;46.99;99273.25;25023;1316;3049507;-61
2022/08/12 11:55:02;;;;;;;13.60;6.90;;;;;;;27.05;46.85;99278.44;25132;1316;3026487;-57
2022/08/12 11:57:32;;;;;;;12.00;6.10;;;;;;;27.03;46.99;99273.73;25026;1316;3057873;-56
2022/08/12 12:00:02;;;;;;;14.30;6.20;;;;;;;27.10;46.70;99274.83;25109;1316;3026776;-59
2022/08/12 12:02:41;;;;;;;15.00;6.30;;;;;;;27.08;46.65;99274.83;25067;1316;3051039;-60
2022/08/12 12:05:10;;;;;;;12.50;7.30;;;;;;;26.97;47.52;99274.48;25091;1316;3027051;-59
2022/08/12 12:07:40;;;;;;;12.20;6.50;;;;;;;26.88;48.60;99276.63;25036;1316;3055417;-59
2022/08/12 12:10:11;;;;;;;13.00;6.50;;;;;;;26.85;49.62;99279.77;25050;1315;3026855;-61
2022/08/12 12:12:41;;;;;;;13.40;6.80;;;;;;;26.55;51.66;99284.95;25092;1316;3026880;-62
2022/08/12 12:15:10;;;;;;;11.40;6.60;;;;;;;26.43;52.62;99283.79;25054;1316;3029117;-60
2022/08/12 12:17:40;;;;;;;11.30;6.90;;;;;;;26.31;53.13;99286.64;25039;1316;3026498;-58
2022/08/12 12:20:10;;;;;;;12.10;7.00;;;;;;;26.14;54.40;99277.90;25061;1316;3026835;-62
2022/08/12 12:22:40;;;;;;;11.20;6.50;;;;;;;25.99;54.89;99285.29;25053;1314;3026734;-57
2022/08/12 12:25:09;;;;;;;10.50;6.90;;;;;;;25.93;55.20;99283.05;25046;1314;3026307;-59
2022/08/12 12:27:45;;;;;;;10.70;6.70;;;;;;;25.73;56.33;99282.55;25097;1315;3026832;-60
2022/08/12 12:30:15;;;;;;;11.80;6.50;;;;;;;25.62;56.99;99277.17;25048;1316;3069298;-62
2022/08/12 12:32:44;;;;;;;13.30;6.90;;;;;;;25.57;56.94;99276.96;25023;1315;3026302;-60
2022/08/12 12:35:13;;;;;;;10.40;6.20;;;;;;;25.52;57.18;99271.38;25081;1315;3026885;-60
2022/08/12 12:37:56;;;;;;;13.00;7.20;;;;;;;25.51;57.39;99265.50;25104;1314;3071002;-58
2022/08/12 12:40:26;;;;;;;12.40;7.10;;;;;;;25.54;57.20;99265.47;25081;1316;3049695;-64
2022/08/12 12:42:54;;;;;;;11.50;6.80;;;;;;;25.51;57.26;99260.78;25100;1316;3026177;-56
2022/08/12 12:45:24;;;;;;;11.60;6.40;;;;;;;25.52;57.13;99263.48;25054;1316;3026116;-58
2022/08/12 12:48:08;;;;;;;13.40;7.00;;;;;;;25.58;56.68;99259.48;25084;1315;3048459;-61
2022/08/12 12:50:42;;;;;;;13.90;7.70;;;;;;;25.62;57.08;99257.59;25057;1316;3053342;-59
2022/08/12 12:53:14;;;;;;;12.60;7.50;;;;;;;25.64;56.59;99251.52;25047;1316;3051550;-61
2022/08/12 12:55:45;;;;;;;14.50;7.40;;;;;;;25.69;56.20;99251.61;25085;1316;3026213;-60
2022/08/12 12:58:39;;;;;;;15.70;7.00;;;;;;;25.76;56.35;99247.06;25087;1314;3050165;-59
2022/08/12 13:01:09;;;;;;;11.30;7.30;;;;;;;25.76;56.25;99249.83;25007;1316;3026963;-60
2022/08/12 13:03:39;;;;;;;12.80;7.30;;;;;;;25.77;56.30;99244.00;25088;1316;3059237;-61
2022/08/12 13:06:08;;;;;;;13.40;7.90;;;;;;;25.81;56.07;99252.09;25046;1316;3026387;-61
2022/08/12 13:08:37;;;;;;;18.10;7.70;;;;;;;25.85;55.76;99251.74;25073;1315;3026681;-60
2022/08/12 13:11:06;;;;;;;15.80;6.80;;;;;;;25.95;55.23;99247.24;25053;1315;3057418;-62
2022/08/12 13:13:35;;;;;;;11.50;7.00;;;;;;;26.03;55.24;99250.98;25065;1316;3027284;-61